Time;durP1;ratioP1;P1;durP2;ratioP2;P2;SDS_P1;SDS_P2;PMS_P1;PMS_P2;Temp;Humidity;BMP_temperature;BMP_pressure;BME280_temperature;BME280_humidity;BME280_pressure;Samples;Min_cycle;Max_cycle;Signal;HPM_P1;HPM_P2
2021/03/05 00:01:38;;;;;;;58.40;26.95;;;;;;;4.17;100.00;98798.42;4304748;80;28600;-78
2021/03/05 00:07:41;;;;;;;66.82;30.30;;;;;;;3.89;100.00;98798.44;4315599;80;28552;-79
2021/03/05 00:13:43;;;;;;;62.55;29.07;;;;;;;3.98;100.00;98797.78;4294145;81;28615;-77
2021/03/05 00:19:45;;;;;;;68.25;30.65;;;;;;;4.06;100.00;98812.27;4303131;82;28657;-77
2021/03/05 00:25:49;;;;;;;70.03;30.82;;;;;;;3.93;100.00;98816.98;4337107;81;28596;-77
2021/03/05 00:31:52;;;;;;;63.83;28.17;;;;;;;4.00;100.00;98809.88;4311283;81;28610;-78
2021/03/05 00:37:55;;;;;;;61.20;27.35;;;;;;;3.94;100.00;98817.81;4334288;81;28599;-80
2021/03/05 00:43:57;;;;;;;62.98;28.67;;;;;;;3.85;100.00;98813.13;4320991;81;28625;-79
2021/03/05 00:49:59;;;;;;;64.97;27.90;;;;;;;3.61;100.00;98826.66;4335809;81;28585;-78
2021/03/05 00:56:02;;;;;;;57.48;25.88;;;;;;;3.52;100.00;98812.34;4308109;81;28644;-77
2021/03/05 01:02:05;;;;;;;61.53;26.62;;;;;;;3.68;100.00;98808.59;4325628;81;28639;-77
2021/03/05 01:08:08;;;;;;;66.77;28.30;;;;;;;3.61;100.00;98808.05;4326134;81;28544;-76
2021/03/05 01:14:12;;;;;;;59.33;26.23;;;;;;;3.43;100.00;98809.80;4326321;81;28592;-76
2021/03/05 01:20:18;;;;;;;59.63;27.90;;;;;;;3.44;100.00;98797.35;4318296;81;28567;-76
2021/03/05 01:26:20;;;;;;;68.92;29.32;;;;;;;3.42;100.00;98796.20;4367078;80;28565;-76
2021/03/05 01:32:22;;;;;;;55.52;24.15;;;;;;;3.39;100.00;98804.56;4316646;82;28622;-76
2021/03/05 01:38:26;;;;;;;59.73;27.42;;;;;;;3.20;100.00;98812.14;4333926;82;28627;-77
2021/03/05 01:44:28;;;;;;;60.05;25.82;;;;;;;3.35;100.00;98806.77;4318908;82;28964;-78
2021/03/05 01:50:54;;;;;;;62.10;26.02;;;;;;;3.25;100.00;98806.27;4309226;81;28569;-77
2021/03/05 01:56:56;;;;;;;58.83;25.08;;;;;;;3.18;100.00;98805.39;4295998;82;28606;-77
2021/03/05 02:02:58;;;;;;;51.02;23.10;;;;;;;3.03;100.00;98798.80;4309271;80;28577;-76
2021/03/05 02:09:01;;;;;;;53.13;23.55;;;;;;;3.10;100.00;98797.55;4328777;82;28558;-76
2021/03/05 02:15:05;;;;;;;49.35;21.60;;;;;;;3.11;100.00;98811.94;4300899;82;28549;-77
2021/03/05 02:21:50;;;;;;;49.60;22.02;;;;;;;3.08;100.00;98805.69;4319817;82;28570;-77
2021/03/05 02:28:14;;;;;;;50.78;21.70;;;;;;;2.97;100.00;98804.36;4312888;81;28610;-77
2021/03/05 02:34:31;;;;;;;45.33;20.80;;;;;;;2.87;100.00;98803.31;4327199;82;28546;-78
2021/03/05 02:40:43;;;;;;;48.20;20.10;;;;;;;2.57;100.00;98817.95;4293769;82;28618;-79
2021/03/05 02:46:46;;;;;;;44.70;19.25;;;;;;;2.34;100.00;98820.22;4303610;82;28610;-79
2021/03/05 02:52:51;;;;;;;49.70;21.17;;;;;;;2.37;100.00;98818.52;4301241;82;28622;-78
2021/03/05 02:58:55;;;;;;;45.05;20.40;;;;;;;2.30;100.00;98830.05;4302161;82;28573;-79
2021/03/05 03:05:00;;;;;;;44.45;18.65;;;;;;;2.41;100.00;98824.80;4329978;82;28559;-78
2021/03/05 03:11:05;;;;;;;34.48;15.58;;;;;;;2.35;100.00;98825.84;4329052;82;28618;-77
2021/03/05 03:17:10;;;;;;;36.60;15.32;;;;;;;2.30;100.00;98828.23;4302680;82;28590;-77
2021/03/05 03:23:12;;;;;;;38.28;16.25;;;;;;;2.31;100.00;98827.22;4327448;81;28648;-77
2021/03/05 03:29:15;;;;;;;35.55;15.38;;;;;;;2.31;100.00;98826.39;4311692;81;28564;-76
2021/03/05 03:35:17;;;;;;;32.53;14.18;;;;;;;2.18;100.00;98818.56;4311159;82;28682;-76
2021/03/05 03:41:20;;;;;;;30.43;13.20;;;;;;;2.15;100.00;98825.57;4310835;82;28580;-77
2021/03/05 03:47:24;;;;;;;25.60;12.13;;;;;;;2.16;100.00;98836.50;4310309;82;28596;-77
2021/03/05 03:53:30;;;;;;;29.23;11.83;;;;;;;2.31;100.00;98837.84;4304795;82;28588;-77
2021/03/05 03:59:34;;;;;;;33.20;14.80;;;;;;;2.27;100.00;98832.55;4337117;82;28628;-77
2021/03/05 04:05:38;;;;;;;30.10;13.00;;;;;;;2.36;100.00;98826.16;4306810;82;28579;-77
2021/03/05 04:11:41;;;;;;;30.37;12.20;;;;;;;2.19;100.00;98841.95;4310757;82;28566;-77
2021/03/05 04:17:46;;;;;;;29.23;11.28;;;;;;;2.21;100.00;98846.56;4290194;82;28645;-76
2021/03/05 04:23:49;;;;;;;26.68;10.82;;;;;;;2.08;100.00;98859.95;4311263;82;28546;-78
2021/03/05 04:29:51;;;;;;;24.12;11.00;;;;;;;2.13;100.00;98863.36;4290715;82;28646;-74
2021/03/05 04:35:53;;;;;;;28.23;11.48;;;;;;;2.26;100.00;98873.36;4309045;82;28558;-75
2021/03/05 04:41:55;;;;;;;21.50;9.85;;;;;;;2.23;100.00;98875.05;4319783;82;28549;-77
2021/03/05 04:47:57;;;;;;;22.93;10.85;;;;;;;2.20;100.00;98881.53;4294870;82;28591;-78
2021/03/05 04:54:00;;;;;;;22.22;10.43;;;;;;;2.07;100.00;98885.31;4308058;82;28544;-78
2021/03/05 05:00:05;;;;;;;25.65;10.75;;;;;;;2.04;100.00;98873.23;4294780;82;28653;-75
2021/03/05 05:06:07;;;;;;;28.25;11.03;;;;;;;2.13;100.00;98887.23;4313458;82;28581;-76
2021/03/05 05:12:09;;;;;;;25.23;10.85;;;;;;;1.92;100.00;98879.45;4346421;80;28554;-76
2021/03/05 05:18:12;;;;;;;28.02;12.10;;;;;;;2.33;100.00;98884.06;4297847;82;28608;-78
2021/03/05 05:24:14;;;;;;;27.85;12.07;;;;;;;1.84;100.00;98880.87;4317847;80;28572;-77
2021/03/05 05:30:16;;;;;;;23.22;11.43;;;;;;;1.81;100.00;98888.67;4296706;80;28583;-77
2021/03/05 05:36:19;;;;;;;26.55;11.50;;;;;;;1.47;100.00;98889.08;4311212;81;28582;-76
2021/03/05 05:42:21;;;;;;;25.23;11.18;;;;;;;1.71;100.00;98892.06;4327127;81;28585;-77
2021/03/05 05:48:23;;;;;;;29.00;11.83;;;;;;;1.70;100.00;98906.33;4304996;81;28611;-77
2021/03/05 05:54:28;;;;;;;22.50;10.95;;;;;;;1.75;100.00;98897.84;4342541;81;28563;-77
2021/03/05 06:00:31;;;;;;;22.02;10.48;;;;;;;1.79;100.00;98892.50;4345998;81;28549;-76
2021/03/05 06:06:33;;;;;;;22.42;10.30;;;;;;;2.11;100.00;98905.16;4352266;81;28628;-74
2021/03/05 06:12:36;;;;;;;22.82;10.63;;;;;;;2.01;100.00;98904.59;4319487;80;28679;-75
2021/03/05 06:18:42;;;;;;;22.40;9.60;;;;;;;1.95;100.00;98912.27;4329645;80;28633;-74
2021/03/05 06:24:44;;;;;;;17.17;8.60;;;;;;;2.10;100.00;98916.78;4319334;80;28620;-74
2021/03/05 06:30:46;;;;;;;19.37;8.68;;;;;;;2.31;100.00;98926.72;4312899;81;28571;-77
2021/03/05 06:37:03;;;;;;;19.57;9.40;;;;;;;2.31;100.00;98939.14;4326228;80;28559;-74
2021/03/05 06:43:07;;;;;;;19.60;9.70;;;;;;;2.48;100.00;98939.33;4330001;81;28751;-77
2021/03/05 06:49:14;;;;;;;24.02;9.95;;;;;;;2.46;100.00;98955.94;4306479;81;28643;-78
2021/03/05 06:55:17;;;;;;;20.70;10.13;;;;;;;2.47;100.00;98960.73;4334320;80;28662;-76
2021/03/05 07:01:19;;;;;;;21.15;9.75;;;;;;;2.56;100.00;98967.61;4340822;81;28630;-78
2021/03/05 07:07:24;;;;;;;21.37;10.28;;;;;;;2.74;100.00;98974.41;4324824;80;28552;-77
2021/03/05 07:13:26;;;;;;;22.17;9.95;;;;;;;2.63;100.00;98988.94;4311025;81;28552;-77
2021/03/05 07:19:31;;;;;;;20.57;9.75;;;;;;;2.85;100.00;98986.41;4326696;80;28593;-77
2021/03/05 07:25:34;;;;;;;25.87;10.90;;;;;;;2.86;100.00;98994.69;4319413;81;28552;-76
2021/03/05 07:31:37;;;;;;;21.65;10.63;;;;;;;2.82;100.00;98997.39;4308937;81;28584;-77
2021/03/05 07:37:52;;;;;;;25.55;12.73;;;;;;;2.83;100.00;99001.70;4308999;80;28613;-76
2021/03/05 07:43:54;;;;;;;25.97;11.80;;;;;;;2.53;100.00;99003.81;4324318;80;28676;-77
2021/03/05 07:49:59;;;;;;;28.50;11.65;;;;;;;2.60;100.00;99009.22;4316173;80;28541;-78
2021/03/05 07:56:03;;;;;;;21.57;10.78;;;;;;;2.57;100.00;99024.19;4329275;80;28635;-80
2021/03/05 08:02:07;;;;;;;23.67;12.07;;;;;;;3.39;100.00;99024.36;4300633;82;28626;-78
2021/03/05 08:08:15;;;;;;;22.48;11.45;;;;;;;3.48;100.00;99029.38;4324443;81;28559;-77
2021/03/05 08:14:24;;;;;;;24.55;11.55;;;;;;;3.46;100.00;99031.40;4307157;82;28577;-77
2021/03/05 08:20:38;;;;;;;28.10;13.55;;;;;;;3.15;100.00;99040.39;4322358;80;28665;-77
2021/03/05 08:27:04;;;;;;;33.80;13.22;;;;;;;3.13;100.00;99044.22;4305868;82;28596;-78
2021/03/05 08:33:08;;;;;;;21.82;9.98;;;;;;;2.94;100.00;99050.38;4317560;82;28604;-76
2021/03/05 08:39:26;;;;;;;19.50;8.43;;;;;;;2.45;100.00;99073.72;4309025;82;28582;-78
2021/03/05 08:45:31;;;;;;;15.93;7.62;;;;;;;1.93;100.00;99087.13;4325525;80;28584;-77
2021/03/05 08:51:41;;;;;;;10.20;6.03;;;;;;;2.14;100.00;99084.36;4322005;80;28602;-79
2021/03/05 08:57:49;;;;;;;10.23;5.47;;;;;;;2.12;100.00;99099.63;4305399;80;28578;-78
2021/03/05 09:03:51;;;;;;;9.80;5.00;;;;;;;1.94;100.00;99113.96;4314417;80;28629;-80
2021/03/05 09:09:53;;;;;;;7.00;4.08;;;;;;;1.66;100.00;99117.05;4320683;82;28592;-78
2021/03/05 09:15:59;;;;;;;7.67;5.05;;;;;;;1.67;100.00;99128.01;4339030;80;28586;-77
2021/03/05 09:22:13;;;;;;;7.50;4.60;;;;;;;1.86;100.00;99136.53;4315167;80;28607;-79
2021/03/05 09:28:16;;;;;;;8.78;5.00;;;;;;;1.76;100.00;99134.91;4313434;80;28598;-81
2021/03/05 09:34:18;;;;;;;8.25;5.45;;;;;;;1.66;100.00;99139.09;4311956;82;28659;-78
2021/03/05 09:40:22;;;;;;;9.23;5.33;;;;;;;1.59;100.00;99145.25;4319076;81;28624;-79
2021/03/05 09:46:31;;;;;;;;;;;;;;;1.68;100.00;99157.48;4327485;82;28619;-76
2021/03/05 09:52:33;;;;;;;9.53;5.25;;;;;;;1.59;100.00;99171.23;4311987;82;20232;-77
2021/03/05 09:58:38;;;;;;;10.75;6.05;;;;;;;1.34;100.00;99177.08;4316207;80;28642;-78
2021/03/05 10:04:45;;;;;;;8.43;5.15;;;;;;;1.51;100.00;99181.85;4321478;82;28554;-78
2021/03/05 10:11:04;;;;;;;6.97;4.55;;;;;;;1.90;100.00;99193.54;4235256;83;28657;-76
2021/03/05 10:17:15;;;;;;;9.20;5.10;;;;;;;2.35;100.00;99193.86;4238502;82;28618;-78
2021/03/05 10:23:22;;;;;;;9.55;5.30;;;;;;;2.23;100.00;99205.34;4235335;82;28543;-79
2021/03/05 10:29:25;;;;;;;9.13;4.80;;;;;;;2.48;100.00;99223.30;4194760;84;34455;-78
2021/03/05 10:35:28;;;;;;;8.23;4.75;;;;;;;1.95;100.00;99227.83;4294662;82;42694;-79
2021/03/05 10:41:31;;;;;;;9.23;5.08;;;;;;;2.23;100.00;99229.22;4327689;82;28553;-78
2021/03/05 10:47:34;;;;;;;7.08;4.17;;;;;;;1.98;100.00;99242.58;4308886;82;28609;-78
2021/03/05 10:53:37;;;;;;;7.53;4.03;;;;;;;2.13;100.00;99245.84;4322394;82;28668;-79
2021/03/05 10:59:39;;;;;;;6.05;3.98;;;;;;;2.55;100.00;99262.41;4310990;82;28639;-78
2021/03/05 11:05:41;;;;;;;6.05;4.03;;;;;;;2.00;100.00;99261.80;4319209;82;28581;-77
2021/03/05 11:11:45;;;;;;;9.53;4.80;;;;;;;2.04;100.00;99268.92;4305748;82;28561;-75
2021/03/05 11:17:47;;;;;;;8.93;5.00;;;;;;;1.47;100.00;99283.41;4321816;82;28569;-77
2021/03/05 11:23:49;;;;;;;10.50;5.45;;;;;;;1.44;100.00;99278.93;4301185;82;28644;-77
2021/03/05 11:29:51;;;;;;;7.97;4.30;;;;;;;1.63;100.00;99281.24;4309382;80;28628;-77
2021/03/05 11:35:54;;;;;;;9.88;5.00;;;;;;;2.12;100.00;99284.79;4159686;84;28552;-78
2021/03/05 11:41:56;;;;;;;10.13;5.22;;;;;;;2.29;100.00;99290.90;4171887;83;28590;-77
2021/03/05 11:47:58;;;;;;;8.08;4.60;;;;;;;1.89;100.00;99304.06;4180579;84;28611;-76
2021/03/05 11:54:00;;;;;;;10.08;4.80;;;;;;;2.20;100.00;99294.05;4195378;85;28690;-77
2021/03/05 12:00:08;;;;;;;9.68;4.53;;;;;;;1.92;100.00;99301.07;4203683;84;28578;-76
2021/03/05 12:06:11;;;;;;;9.73;4.90;;;;;;;1.74;100.00;99303.92;4177316;84;28632;-78
2021/03/05 12:12:27;;;;;;;;;;;;;;;;;;;;;
2021/03/05 12:18:29;;;;;;;10.43;4.42;;;;;;;2.15;100.00;99318.11;4176869;84;28569;-78
2021/03/05 12:24:32;;;;;;;7.67;4.00;;;;;;;2.32;100.00;99326.38;4193686;84;28601;-77
2021/03/05 12:30:35;;;;;;;8.68;4.28;;;;;;;2.34;100.00;99338.97;4189743;83;28636;-80
2021/03/05 12:36:38;;;;;;;14.05;6.03;;;;;;;2.03;100.00;99338.84;4191067;84;28597;-80
2021/03/05 12:42:42;;;;;;;11.45;6.17;;;;;;;1.66;100.00;99355.13;4190491;84;28678;-80
2021/03/05 12:48:45;;;;;;;12.83;6.23;;;;;;;1.42;100.00;99359.09;4189168;84;35055;-80
2021/03/05 12:54:48;;;;;;;11.63;6.47;;;;;;;1.31;100.00;99369.01;4186350;84;28574;-79
2021/03/05 13:00:50;;;;;;;13.38;7.05;;;;;;;1.35;100.00;99373.45;4189857;84;28628;-78
2021/03/05 13:06:53;;;;;;;12.82;6.47;;;;;;;1.42;100.00;99377.64;4191707;83;28617;-78
2021/03/05 13:12:55;;;;;;;11.70;6.58;;;;;;;1.45;100.00;99391.36;4188645;84;28612;-80
2021/03/05 13:18:59;;;;;;;12.70;6.50;;;;;;;1.24;100.00;99393.97;4194156;84;28648;-78
2021/03/05 13:25:02;;;;;;;11.80;6.30;;;;;;;1.49;100.00;99400.66;4181128;83;28597;-82
2021/03/05 13:31:05;;;;;;;9.63;4.95;;;;;;;1.42;100.00;99410.76;4212702;82;28628;-83
2021/03/05 13:37:07;;;;;;;9.85;5.35;;;;;;;1.25;100.00;99429.25;4268461;82;28557;-82
2021/03/05 13:43:10;;;;;;;11.35;5.05;;;;;;;1.03;100.00;99431.97;4271998;82;28553;-81
2021/03/05 13:49:14;;;;;;;8.58;4.72;;;;;;;1.04;100.00;99443.73;4277999;82;28597;-84
2021/03/05 13:55:16;;;;;;;9.70;5.12;;;;;;;1.26;100.00;99446.80;4275348;82;29019;-79
2021/03/05 14:01:18;;;;;;;10.05;4.80;;;;;;;1.47;100.00;99458.30;4289815;82;28570;-81
2021/03/05 14:07:21;;;;;;;10.23;5.05;;;;;;;1.07;100.00;99454.52;4257260;82;28559;-74
2021/03/05 14:13:23;;;;;;;9.38;4.75;;;;;;;1.44;100.00;99463.09;4276289;82;28606;-76
2021/03/05 14:19:27;;;;;;;10.28;4.42;;;;;;;1.24;100.00;99476.09;4207720;82;28556;-76
2021/03/05 14:25:30;;;;;;;11.80;4.90;;;;;;;1.33;100.00;99484.07;4327407;81;28663;-77
2021/03/05 14:31:32;;;;;;;11.70;5.10;;;;;;;1.23;100.00;99492.97;4341703;81;28562;-76
2021/03/05 14:37:35;;;;;;;6.50;3.58;;;;;;;1.14;100.00;99493.92;4334817;80;28678;-75
2021/03/05 14:43:38;;;;;;;9.25;3.90;;;;;;;1.15;100.00;99499.58;4171240;84;28577;-77
2021/03/05 14:49:40;;;;;;;10.88;4.45;;;;;;;1.34;100.00;99507.77;4180264;83;28565;-75
2021/03/05 14:55:43;;;;;;;7.67;3.90;;;;;;;1.04;100.00;99518.37;4214394;82;28584;-76
2021/03/05 15:01:45;;;;;;;10.65;4.30;;;;;;;1.08;100.00;99523.20;4187697;83;28643;-75
2021/03/05 15:07:47;;;;;;;7.62;4.03;;;;;;;1.03;100.00;99526.83;4211859;84;42711;-75
2021/03/05 15:13:50;;;;;;;8.20;3.87;;;;;;;0.97;100.00;99531.41;4214233;84;42727;-77
2021/03/05 15:19:52;;;;;;;6.60;3.45;;;;;;;0.94;100.00;99538.34;4241509;83;28590;-78
2021/03/05 15:25:56;;;;;;;7.90;3.60;;;;;;;0.86;100.00;99561.64;4250653;83;28586;-78
2021/03/05 15:32:01;;;;;;;6.83;3.15;;;;;;;0.83;100.00;99573.36;4223204;83;28597;-76
2021/03/05 15:38:08;;;;;;;9.98;3.20;;;;;;;0.94;100.00;99570.97;4173930;84;28632;-77
2021/03/05 15:44:10;;;;;;;7.72;2.70;;;;;;;0.91;100.00;99576.55;4189025;83;28555;-77
2021/03/05 15:50:16;;;;;;;6.10;2.55;;;;;;;0.96;100.00;99602.09;4192782;84;28551;-77
2021/03/05 15:56:19;;;;;;;5.03;2.27;;;;;;;0.98;100.00;99609.86;4187437;84;28584;-78
2021/03/05 16:02:22;;;;;;;5.87;2.83;;;;;;;0.99;100.00;99616.84;4197951;84;28624;-77
2021/03/05 16:08:24;;;;;;;8.50;3.12;;;;;;;0.99;100.00;99633.21;4190252;84;28648;-78
2021/03/05 16:14:27;;;;;;;5.28;2.92;;;;;;;0.82;100.00;99643.66;4170842;84;28995;-78
2021/03/05 16:20:31;;;;;;;8.18;3.40;;;;;;;0.82;100.00;99652.45;4194809;84;42746;-77
2021/03/05 16:26:33;;;;;;;6.85;2.83;;;;;;;0.68;100.00;99664.39;4178914;84;28625;-77
2021/03/05 16:32:37;;;;;;;9.93;4.20;;;;;;;0.72;100.00;99666.25;4189787;82;42746;-78
2021/03/05 16:38:41;;;;;;;7.85;3.02;;;;;;;0.92;100.00;99679.34;4188555;84;28612;-78
2021/03/05 16:44:43;;;;;;;6.95;3.27;;;;;;;0.91;100.00;99706.30;4198788;84;28614;-77
2021/03/05 16:50:45;;;;;;;9.90;3.75;;;;;;;0.94;100.00;99719.25;4190160;83;42701;-79
2021/03/05 16:56:48;;;;;;;10.08;4.17;;;;;;;0.71;100.00;99721.50;4189537;84;43251;-79
2021/03/05 17:02:50;;;;;;;9.83;4.22;;;;;;;0.85;100.00;99735.19;4190506;83;28674;-78
2021/03/05 17:08:52;;;;;;;12.13;4.28;;;;;;;0.80;100.00;99746.23;4191016;84;43263;-77
2021/03/05 17:14:54;;;;;;;8.50;3.98;;;;;;;0.75;100.00;99761.23;4186794;84;28601;-81
2021/03/05 17:20:58;;;;;;;8.45;4.17;;;;;;;0.55;100.00;99774.58;4189888;84;42696;-80
2021/03/05 17:27:01;;;;;;;11.65;4.95;;;;;;;0.61;100.00;99786.39;4188924;84;28624;-80
2021/03/05 17:33:04;;;;;;;10.28;4.10;;;;;;;0.62;100.00;99792.02;4227170;82;28596;-80
2021/03/05 17:39:07;;;;;;;13.80;4.75;;;;;;;0.53;100.00;99801.69;4265650;82;43216;-80
2021/03/05 17:45:10;;;;;;;10.85;4.92;;;;;;;0.41;100.00;99818.23;4264703;82;28612;-78
2021/03/05 17:51:12;;;;;;;15.40;6.15;;;;;;;0.35;100.00;99825.45;4260552;82;43949;-77
2021/03/05 17:57:14;;;;;;;10.98;5.12;;;;;;;0.32;100.00;99828.87;4259435;82;43294;-78
2021/03/05 18:03:16;;;;;;;13.43;5.80;;;;;;;0.26;100.00;99833.77;4265860;82;43270;-76
2021/03/05 18:09:18;;;;;;;15.60;6.67;;;;;;;0.04;100.00;99847.31;4261860;82;43908;-74
2021/03/05 18:15:20;;;;;;;14.40;5.97;;;;;;;-0.11;100.00;99862.31;4270911;82;43908;-75
2021/03/05 18:21:23;;;;;;;16.12;6.65;;;;;;;-0.19;100.00;99855.56;4268877;82;43996;-75
2021/03/05 18:27:27;;;;;;;13.38;5.85;;;;;;;-0.24;100.00;99867.06;4271268;82;43948;-75
2021/03/05 18:33:29;;;;;;;12.58;5.53;;;;;;;-0.35;100.00;99882.56;4255109;82;43239;-76
2021/03/05 18:39:31;;;;;;;13.60;5.15;;;;;;;-0.21;100.00;99894.05;4254957;82;43216;-76
2021/03/05 18:45:33;;;;;;;16.95;6.17;;;;;;;-0.21;100.00;99895.84;4268885;82;43910;-78
2021/03/05 18:51:36;;;;;;;16.57;7.35;;;;;;;-0.17;100.00;99910.44;4280138;82;44020;-79
2021/03/05 18:57:40;;;;;;;25.65;11.55;;;;;;;-0.04;100.00;99918.94;4255845;82;43370;-85
2021/03/05 19:03:42;;;;;;;25.17;11.43;;;;;;;0.13;100.00;99932.41;4272211;82;42993;-81
2021/03/05 19:09:44;;;;;;;25.08;11.05;;;;;;;0.22;100.00;99941.33;4271901;82;43622;-74
2021/03/05 19:15:46;;;;;;;26.82;11.15;;;;;;;0.29;100.00;99949.02;4260104;82;43486;-78
2021/03/05 19:21:48;;;;;;;22.15;9.85;;;;;;;0.13;100.00;99961.50;4254899;82;43910;-80
2021/03/05 19:27:51;;;;;;;20.70;8.93;;;;;;;0.08;100.00;99965.88;4263504;82;43929;-78
2021/03/05 19:33:53;;;;;;;23.20;8.28;;;;;;;-0.05;100.00;99983.38;4234263;82;43994;-77
2021/03/05 19:39:55;;;;;;;18.32;7.47;;;;;;;0.05;100.00;99971.46;4209990;84;43937;-76
2021/03/05 19:46:03;;;;;;;19.20;8.90;;;;;;;0.05;100.00;99973.26;4186321;84;43915;-77
2021/03/05 19:52:08;;;;;;;16.07;7.28;;;;;;;-0.04;100.00;99992.97;4197892;84;44002;-77
2021/03/05 19:58:11;;;;;;;22.05;8.25;;;;;;;0.06;100.00;99996.92;4192593;83;43940;-75
2021/03/05 20:04:13;;;;;;;22.48;8.33;;;;;;;0.12;100.00;99996.38;4175474;83;43935;-75
2021/03/05 20:10:16;;;;;;;20.75;8.95;;;;;;;0.10;100.00;100010.71;4216974;82;43970;-74
2021/03/05 20:16:18;;;;;;;22.40;9.60;;;;;;;-0.05;100.00;100027.00;4207089;83;43950;-78
2021/03/05 20:22:20;;;;;;;21.95;9.03;;;;;;;-0.21;100.00;100030.17;4185798;83;43943;-79
2021/03/05 20:28:23;;;;;;;26.85;9.48;;;;;;;-0.35;100.00;100038.00;4221204;83;42605;-78
2021/03/05 20:34:25;;;;;;;17.02;7.12;;;;;;;-0.43;100.00;100040.48;4234579;83;44001;-79
2021/03/05 20:40:27;;;;;;;21.85;9.08;;;;;;;-0.50;100.00;100035.38;4200805;84;43970;-78
2021/03/05 20:46:29;;;;;;;20.72;8.53;;;;;;;-0.73;100.00;100046.99;4331263;81;43947;-78
2021/03/05 20:52:32;;;;;;;24.07;9.25;;;;;;;-0.92;100.00;100057.46;4183093;83;43916;-78
2021/03/05 20:58:34;;;;;;;26.65;9.13;;;;;;;-1.03;100.00;100063.64;4217543;84;41533;-77
2021/03/05 21:04:36;;;;;;;24.18;9.90;;;;;;;-1.03;100.00;100059.69;4215348;84;43909;-78
2021/03/05 21:10:38;;;;;;;24.50;10.38;;;;;;;-1.12;100.00;100066.59;4213674;84;44502;-77
2021/03/05 21:16:41;;;;;;;24.82;10.78;;;;;;;-1.16;100.00;100071.28;4217855;84;43212;-78
2021/03/05 21:22:43;;;;;;;35.35;13.90;;;;;;;-1.10;100.00;100080.95;4219975;84;44096;-78
2021/03/05 21:28:47;;;;;;;34.55;13.15;;;;;;;-1.22;100.00;100082.34;4334736;81;44109;-75
2021/03/05 21:34:50;;;;;;;30.62;14.13;;;;;;;-1.23;100.00;100083.81;4321394;80;44082;-75
2021/03/05 21:40:53;;;;;;;32.95;13.90;;;;;;;-1.29;100.00;100095.72;4321963;81;44119;-75
2021/03/05 21:46:59;;;;;;;35.98;13.93;;;;;;;-1.38;100.00;100096.48;4324939;81;44462;-76
2021/03/05 21:53:00;;;;;;;37.10;15.05;;;;;;;-1.61;100.00;100101.86;4309324;81;44448;-73
2021/03/05 21:59:03;;;;;;;33.48;14.58;;;;;;;-1.68;100.00;100105.45;4321539;81;44137;-74
2021/03/05 22:05:09;;;;;;;36.75;15.43;;;;;;;-1.81;100.00;100100.36;4158167;84;44487;-75
2021/03/05 22:11:12;;;;;;;35.55;15.38;;;;;;;-1.97;100.00;100107.36;4169030;83;44255;-75
2021/03/05 22:17:17;;;;;;;;;;;;;;;-2.12;100.00;100112.05;4159667;85;28632;-74
2021/03/05 22:23:20;;;;;;;46.73;17.32;;;;;;;-2.24;100.00;100115.17;4178249;84;43808;-75
2021/03/05 22:29:23;;;;;;;52.78;20.97;;;;;;;-2.16;100.00;100133.00;4195323;84;44097;-74
2021/03/05 22:35:25;;;;;;;45.45;18.90;;;;;;;-2.07;100.00;100134.91;4191412;83;43734;-76
2021/03/05 22:41:28;;;;;;;48.73;19.98;;;;;;;-2.20;100.00;100144.75;4235542;82;44474;-74
2021/03/05 22:47:30;;;;;;;49.00;20.57;;;;;;;-2.29;100.00;100148.93;4179758;84;44095;-75
2021/03/05 22:53:33;;;;;;;46.75;20.25;;;;;;;-2.39;100.00;100149.67;4187671;84;43738;-74
2021/03/05 22:59:36;;;;;;;49.63;20.05;;;;;;;-2.46;100.00;100155.52;4182083;84;43777;-76
2021/03/05 23:05:38;;;;;;;45.70;18.17;;;;;;;-2.47;100.00;100157.80;4201531;84;43736;-77
2021/03/05 23:11:40;;;;;;;42.38;17.73;;;;;;;-2.45;100.00;100166.41;4207256;84;42943;-76
2021/03/05 23:17:42;;;;;;;47.73;17.77;;;;;;;-2.46;100.00;100164.73;4187095;84;43797;-75
2021/03/05 23:23:46;;;;;;;45.33;17.90;;;;;;;-2.41;100.00;100168.69;4164056;83;43743;-75
2021/03/05 23:29:48;;;;;;;44.77;18.80;;;;;;;-2.39;100.00;100181.28;4152655;83;43772;-75
2021/03/05 23:35:52;;;;;;;44.03;18.73;;;;;;;-2.51;100.00;100178.26;4170136;84;43746;-75
2021/03/05 23:41:54;;;;;;;46.70;19.23;;;;;;;-2.60;100.00;100182.45;4166698;83;44035;-76
2021/03/05 23:47:57;;;;;;;53.00;20.90;;;;;;;-2.60;100.00;100187.71;4167136;83;44081;-75
2021/03/05 23:53:59;;;;;;;50.12;20.40;;;;;;;-2.52;100.00;100193.23;4168630;83;44450;-76
